createdAt,value
2022-11-07T00:01:38.868Z,8.51
2022-11-07T00:04:05.493Z,8.54
2022-11-07T00:06:32.063Z,8.51
2022-11-07T00:08:59.269Z,8.53
2022-11-07T00:11:25.804Z,8.54
2022-11-07T00:13:52.287Z,8.56
2022-11-07T00:16:18.804Z,8.59
2022-11-07T00:18:45.355Z,8.57
2022-11-07T00:21:11.928Z,8.60
2022-11-07T00:23:41.479Z,8.63
2022-11-07T00:26:11.426Z,8.67
2022-11-07T00:28:40.343Z,8.68
2022-11-07T00:31:08.223Z,8.68
2022-11-07T00:33:34.716Z,8.68
2022-11-07T00:36:01.290Z,8.74
2022-11-07T00:38:27.986Z,8.71
2022-11-07T00:40:56.316Z,8.75
2022-11-07T00:43:23.397Z,8.75
2022-11-07T00:45:50.133Z,8.76
2022-11-07T00:48:16.643Z,8.79
2022-11-07T00:50:43.411Z,8.81
2022-11-07T00:53:09.906Z,8.82
2022-11-07T00:55:36.531Z,8.85
2022-11-07T00:58:03.133Z,8.87
2022-11-07T01:00:29.709Z,8.89
2022-11-07T01:03:15.354Z,8.91
2022-11-07T01:05:42.075Z,8.88
2022-11-07T01:08:08.610Z,8.90
2022-11-07T01:10:41.527Z,8.94
2022-11-07T01:13:08.056Z,8.97
2022-11-07T01:15:34.580Z,8.96
2022-11-07T01:18:01.062Z,9.02
2022-11-07T01:20:27.543Z,9.04
2022-11-07T01:22:54.282Z,9.00
2022-11-07T01:25:20.802Z,9.04
2022-11-07T01:27:47.313Z,9.03
2022-11-07T01:30:13.798Z,9.04
2022-11-07T01:32:40.300Z,9.05
2022-11-07T01:35:07.135Z,9.05
2022-11-07T01:37:33.673Z,9.04
2022-11-07T01:40:00.167Z,9.05
2022-11-07T01:42:26.940Z,9.07
2022-11-07T01:44:57.661Z,9.07
2022-11-07T01:47:28.723Z,9.02
2022-11-07T01:49:55.906Z,9.04
2022-11-07T01:52:35.039Z,9.04
2022-11-07T01:55:17.237Z,9.08
2022-11-07T01:57:54.194Z,9.07
2022-11-07T02:00:23.214Z,9.05
2022-11-07T02:02:55.902Z,9.05
2022-11-07T02:05:31.754Z,9.05
2022-11-07T02:07:59.406Z,9.08
2022-11-07T02:10:28.178Z,9.09
2022-11-07T02:12:58.981Z,9.10
2022-11-07T02:15:26.284Z,9.09
2022-11-07T02:17:53.956Z,9.08
2022-11-07T02:20:20.528Z,9.12
2022-11-07T02:22:57.216Z,9.14
2022-11-07T02:25:23.989Z,9.13
2022-11-07T02:27:57.875Z,9.13
2022-11-07T02:30:27.973Z,9.13
2022-11-07T02:32:55.215Z,9.13
2022-11-07T02:35:46.784Z,9.12
2022-11-07T02:38:34.935Z,9.15
2022-11-07T02:41:14.522Z,9.17
2022-11-07T02:43:49.694Z,9.19
2022-11-07T02:46:16.588Z,9.20
2022-11-07T02:48:50.116Z,9.19
2022-11-07T02:51:18.073Z,9.20
2022-11-07T02:53:44.601Z,9.21
2022-11-07T02:56:11.182Z,9.24
2022-11-07T02:58:38.105Z,9.28
2022-11-07T03:01:08.174Z,9.29
2022-11-07T03:03:37.225Z,9.28
2022-11-07T03:06:03.929Z,9.28
2022-11-07T03:08:30.458Z,9.28
2022-11-07T03:10:57.052Z,9.30
2022-11-07T03:13:23.769Z,9.30
2022-11-07T03:15:50.786Z,9.35
2022-11-07T03:18:17.736Z,9.37
2022-11-07T03:20:44.340Z,9.39
2022-11-07T03:23:10.847Z,9.37
2022-11-07T03:25:37.386Z,9.37
2022-11-07T03:28:04.565Z,9.39
2022-11-07T03:30:31.260Z,9.40
2022-11-07T03:32:57.825Z,9.40
2022-11-07T03:35:24.404Z,9.40
2022-11-07T03:37:51.078Z,9.44
2022-11-07T03:40:17.705Z,9.45
2022-11-07T03:42:45.504Z,9.48
2022-11-07T03:45:14.644Z,9.48
2022-11-07T03:47:42.995Z,9.47
2022-11-07T03:50:12.854Z,9.47
2022-11-07T03:52:39.695Z,9.51
2022-11-07T03:55:06.841Z,9.50
2022-11-07T03:57:33.406Z,9.48
2022-11-07T03:59:59.928Z,9.47
2022-11-07T04:02:26.580Z,9.46
2022-11-07T04:04:53.261Z,9.44
2022-11-07T04:07:19.753Z,9.45
2022-11-07T04:09:46.304Z,9.47
2022-11-07T04:12:31.238Z,9.48
2022-11-07T04:15:16.385Z,9.49
2022-11-07T04:17:42.940Z,9.49
2022-11-07T04:20:09.977Z,9.52
2022-11-07T04:22:36.566Z,9.56
2022-11-07T04:25:03.776Z,9.57
2022-11-07T04:27:46.895Z,9.55
2022-11-07T04:30:19.486Z,9.56
2022-11-07T04:32:57.104Z,9.55
2022-11-07T04:35:26.297Z,9.61
2022-11-07T04:37:53.111Z,9.62
2022-11-07T04:40:20.269Z,9.63
2022-11-07T04:42:47.952Z,9.66
2022-11-07T04:45:15.600Z,9.68
2022-11-07T04:47:42.154Z,9.74
2022-11-07T04:50:12.310Z,9.79
2022-11-07T04:52:39.306Z,9.77
2022-11-07T04:55:07.812Z,9.74
2022-11-07T04:57:34.375Z,9.76
2022-11-07T05:00:00.941Z,9.76
2022-11-07T05:02:27.617Z,9.77
2022-11-07T05:04:54.271Z,9.78
2022-11-07T05:07:20.964Z,9.78
2022-11-07T05:09:50.653Z,9.76
2022-11-07T05:12:17.171Z,9.79
2022-11-07T05:14:43.705Z,9.79
2022-11-07T05:17:15.353Z,9.80
2022-11-07T05:19:43.364Z,9.77
2022-11-07T05:22:29.427Z,9.77
2022-11-07T05:24:56.426Z,9.80
2022-11-07T05:27:23.941Z,9.81
2022-11-07T05:29:50.965Z,9.81
2022-11-07T05:32:17.923Z,9.81
2022-11-07T05:34:44.697Z,9.80
2022-11-07T05:37:13.219Z,9.78
2022-11-07T05:39:40.227Z,9.74
2022-11-07T05:42:07.101Z,9.71
2022-11-07T05:44:33.676Z,9.69
2022-11-07T05:47:00.891Z,9.68
2022-11-07T05:49:27.524Z,9.64
2022-11-07T05:51:54.152Z,9.63
2022-11-07T05:54:20.789Z,9.62
2022-11-07T05:56:47.367Z,9.60
2022-11-07T05:59:14.056Z,9.57
2022-11-07T06:01:40.723Z,9.55
2022-11-07T06:04:07.704Z,9.55
2022-11-07T06:06:34.749Z,9.52
2022-11-07T06:09:01.268Z,9.55
2022-11-07T06:11:27.812Z,9.53
2022-11-07T06:13:54.919Z,9.49
2022-11-07T06:16:21.506Z,9.51
2022-11-07T06:18:48.358Z,9.51
2022-11-07T06:21:15.999Z,9.50
2022-11-07T06:23:43.049Z,9.51
2022-11-07T06:26:09.817Z,9.50
2022-11-07T06:28:36.524Z,9.51
2022-11-07T06:31:04.677Z,9.50
2022-11-07T06:33:31.450Z,9.47
2022-11-07T06:36:06.697Z,9.45
2022-11-07T06:38:33.446Z,9.46
2022-11-07T06:41:11.603Z,9.41
2022-11-07T06:43:38.707Z,9.41
2022-11-07T06:46:08.608Z,9.34
2022-11-07T06:48:35.214Z,9.34
2022-11-07T06:51:03.969Z,9.36
2022-11-07T06:53:30.719Z,9.34
2022-11-07T06:56:00.086Z,9.30
2022-11-07T06:58:26.600Z,9.32
2022-11-07T07:00:53.596Z,9.28
2022-11-07T07:03:20.179Z,9.31
2022-11-07T07:05:46.697Z,9.31
2022-11-07T07:08:14.135Z,9.31
2022-11-07T07:10:45.469Z,9.32
2022-11-07T07:13:14.076Z,9.37
2022-11-07T07:15:51.249Z,9.35
2022-11-07T07:18:19.068Z,9.44
2022-11-07T07:20:46.414Z,9.45
2022-11-07T07:23:12.982Z,9.51
2022-11-07T07:25:39.572Z,9.52
2022-11-07T07:28:06.090Z,9.56
2022-11-07T07:30:32.766Z,9.55
2022-11-07T07:32:59.308Z,9.55
2022-11-07T07:35:26.024Z,9.58
2022-11-07T07:37:52.635Z,9.61
2022-11-07T07:40:20.228Z,9.62
2022-11-07T07:42:48.117Z,9.68
2022-11-07T07:45:15.971Z,9.75
2022-11-07T07:47:42.802Z,9.76
2022-11-07T07:50:11.256Z,9.81
2022-11-07T07:52:37.822Z,9.84
2022-11-07T07:55:05.632Z,9.86
2022-11-07T07:57:32.295Z,9.90
2022-11-07T07:59:58.825Z,9.97
2022-11-07T08:02:25.475Z,10.05
2022-11-07T08:04:52.039Z,10.11
2022-11-07T08:07:18.584Z,10.15
2022-11-07T08:09:45.151Z,10.22
2022-11-07T08:12:11.701Z,10.27
2022-11-07T08:14:38.206Z,10.31
2022-11-07T08:17:04.783Z,10.33
2022-11-07T08:19:32.373Z,10.37
2022-11-07T08:21:58.892Z,10.40
2022-11-07T08:24:25.497Z,10.43
2022-11-07T08:26:52.119Z,10.48
2022-11-07T08:29:18.654Z,10.51
2022-11-07T08:31:45.204Z,10.56
2022-11-07T08:34:11.806Z,10.62
2022-11-07T08:36:38.439Z,10.66
2022-11-07T08:39:04.936Z,10.70
2022-11-07T08:41:31.487Z,10.74
2022-11-07T08:43:58.068Z,10.86
2022-11-07T08:46:24.605Z,10.91
2022-11-07T08:48:51.113Z,10.94
2022-11-07T08:51:17.963Z,10.96
2022-11-07T08:53:44.506Z,10.97
2022-11-07T08:56:11.441Z,11.01
2022-11-07T08:58:38.236Z,11.00
2022-11-07T09:01:07.313Z,11.00
2022-11-07T09:03:50.290Z,11.10
2022-11-07T09:06:20.069Z,11.09
2022-11-07T09:08:46.858Z,11.09
2022-11-07T09:11:15.892Z,11.10
2022-11-07T09:13:42.595Z,11.13
2022-11-07T09:16:10.614Z,11.18
2022-11-07T09:18:37.141Z,11.22
2022-11-07T09:21:03.764Z,11.29
2022-11-07T09:23:30.664Z,11.32
2022-11-07T09:26:01.126Z,11.35
2022-11-07T09:28:27.766Z,11.35
2022-11-07T09:30:55.447Z,11.44
2022-11-07T09:33:22.750Z,11.47
2022-11-07T09:35:49.677Z,11.50
2022-11-07T09:38:16.522Z,11.65
2022-11-07T09:41:06.536Z,11.59
2022-11-07T09:43:48.806Z,11.71
2022-11-07T09:46:33.379Z,11.71
2022-11-07T09:49:11.931Z,11.79
2022-11-07T09:51:42.891Z,12.00
2022-11-07T09:54:20.407Z,11.94
2022-11-07T09:56:47.123Z,11.95
2022-11-07T09:59:22.954Z,12.00
2022-11-07T10:01:49.662Z,12.03
2022-11-07T10:04:27.209Z,12.02
2022-11-07T10:07:14.955Z,12.03
2022-11-07T10:10:01.805Z,12.08
2022-11-07T10:12:44.826Z,12.02
2022-11-07T10:15:23.284Z,12.05
2022-11-07T10:17:59.074Z,12.00
2022-11-07T10:21:15.973Z,11.98
2022-11-07T10:23:53.922Z,11.93
2022-11-07T10:26:25.506Z,11.98
2022-11-07T10:29:11.846Z,11.92
2022-11-07T10:31:41.390Z,11.93
2022-11-07T10:34:20.607Z,11.92
2022-11-07T10:36:47.215Z,12.00
2022-11-07T10:39:19.196Z,12.05
2022-11-07T10:41:57.101Z,12.10
2022-11-07T10:44:25.265Z,12.06
2022-11-07T10:46:54.526Z,12.08
2022-11-07T10:49:26.852Z,12.06
2022-11-07T10:51:55.071Z,12.07
2022-11-07T10:54:31.472Z,12.06
2022-11-07T10:57:13.324Z,12.03
2022-11-07T10:59:44.576Z,12.06
2022-11-07T11:02:23.937Z,12.09
2022-11-07T11:04:59.000Z,12.07
2022-11-07T11:07:33.726Z,12.07
2022-11-07T11:10:00.319Z,12.12
2022-11-07T11:12:34.944Z,12.17
2022-11-07T11:15:04.317Z,12.13
2022-11-07T11:17:31.219Z,12.13
2022-11-07T11:19:57.970Z,12.12
2022-11-07T11:22:25.915Z,12.10
2022-11-07T11:25:18.559Z,12.11
2022-11-07T11:27:46.845Z,12.10
2022-11-07T11:30:20.725Z,12.12
2022-11-07T11:33:11.526Z,12.14
2022-11-07T11:35:46.263Z,12.18
2022-11-07T11:38:27.026Z,12.16
2022-11-07T11:41:04.812Z,12.16
2022-11-07T11:43:45.658Z,12.19
2022-11-07T11:46:26.703Z,12.22
2022-11-07T11:49:15.043Z,12.21
2022-11-07T11:51:50.568Z,12.28
2022-11-07T11:54:17.319Z,12.32
2022-11-07T11:56:58.121Z,12.26
2022-11-07T11:59:33.656Z,12.26
2022-11-07T12:02:22.143Z,12.27
2022-11-07T12:05:09.125Z,12.27
2022-11-07T12:07:54.082Z,12.29
2022-11-07T12:10:40.195Z,12.26
2022-11-07T12:13:34.251Z,12.21
2022-11-07T12:16:15.748Z,12.22
2022-11-07T12:19:03.642Z,12.21
2022-11-07T12:21:43.489Z,12.22
2022-11-07T12:24:43.638Z,12.30
2022-11-07T12:27:26.688Z,12.27
2022-11-07T12:30:21.233Z,12.27
2022-11-07T12:33:19.181Z,12.23
2022-11-07T12:36:06.176Z,12.26
2022-11-07T12:38:35.427Z,12.29
2022-11-07T12:41:25.063Z,12.30
2022-11-07T12:43:57.581Z,12.31
2022-11-07T12:46:26.966Z,12.34
2022-11-07T12:49:20.817Z,12.35
2022-11-07T12:51:56.080Z,12.41
2022-11-07T12:54:42.633Z,12.54
2022-11-07T12:57:22.232Z,12.54
2022-11-07T12:59:55.008Z,12.56
2022-11-07T13:02:59.891Z,12.59
2022-11-07T13:05:44.460Z,12.69
2022-11-07T13:08:22.174Z,12.79
2022-11-07T13:11:15.143Z,12.82
2022-11-07T13:14:24.059Z,12.89
2022-11-07T13:16:54.426Z,12.86
2022-11-07T13:19:32.291Z,12.90
2022-11-07T13:22:19.927Z,12.94
2022-11-07T13:24:54.099Z,12.90
2022-11-07T13:27:32.000Z,12.84
2022-11-07T13:30:09.614Z,12.83
2022-11-07T13:32:42.377Z,12.82
2022-11-07T13:35:31.038Z,12.77
2022-11-07T13:37:59.014Z,12.76
2022-11-07T13:40:38.825Z,12.74
2022-11-07T13:43:26.821Z,12.71
2022-11-07T13:45:59.123Z,12.70
2022-11-07T13:48:35.771Z,12.65
2022-11-07T13:51:20.664Z,12.64
2022-11-07T13:54:09.720Z,12.63
2022-11-07T13:56:51.931Z,12.62
2022-11-07T13:59:43.131Z,12.62
2022-11-07T14:02:23.541Z,12.58
2022-11-07T14:05:15.335Z,12.60
2022-11-07T14:07:47.747Z,12.58
2022-11-07T14:10:23.941Z,12.58
2022-11-07T14:12:54.176Z,12.57
2022-11-07T14:15:20.786Z,12.50
2022-11-07T14:17:47.781Z,12.51
2022-11-07T14:20:17.539Z,12.49
2022-11-07T14:22:56.490Z,12.50
2022-11-07T14:25:23.007Z,12.42
2022-11-07T14:27:50.468Z,12.43
2022-11-07T14:30:19.134Z,12.45
2022-11-07T14:32:54.514Z,12.40
2022-11-07T14:35:26.979Z,12.39
2022-11-07T14:37:53.665Z,12.39
2022-11-07T14:40:20.306Z,12.42
2022-11-07T14:42:47.897Z,12.40
2022-11-07T14:45:39.223Z,12.40
2022-11-07T14:48:09.841Z,12.39
2022-11-07T14:50:36.564Z,12.37
2022-11-07T14:53:13.437Z,12.34
2022-11-07T14:55:51.313Z,12.32
2022-11-07T14:58:22.107Z,12.30
2022-11-07T15:01:09.806Z,12.29
2022-11-07T15:03:49.738Z,12.27
2022-11-07T15:06:33.414Z,12.25
2022-11-07T15:09:08.146Z,12.25
2022-11-07T15:11:40.314Z,12.23
2022-11-07T15:14:29.552Z,12.19
2022-11-07T15:16:58.469Z,12.18
2022-11-07T15:19:25.055Z,12.15
2022-11-07T15:21:57.973Z,12.12
2022-11-07T15:24:33.191Z,12.09
2022-11-07T15:27:02.778Z,12.13
2022-11-07T15:29:36.166Z,12.09
2022-11-07T15:32:20.920Z,12.03
2022-11-07T15:37:41.909Z,11.99
2022-11-07T15:40:18.638Z,11.96
2022-11-07T15:42:45.174Z,11.96
2022-11-07T15:45:11.984Z,11.93
2022-11-07T15:47:39.203Z,11.91
2022-11-07T15:50:15.557Z,11.90
2022-11-07T15:52:42.891Z,11.86
2022-11-07T15:55:14.748Z,11.85
2022-11-07T15:57:42.858Z,11.84
2022-11-07T16:00:17.968Z,11.83
2022-11-07T16:02:45.698Z,11.80
2022-11-07T16:05:13.620Z,11.79
2022-11-07T16:07:45.108Z,11.80
2022-11-07T16:10:24.826Z,11.78
2022-11-07T16:12:52.780Z,11.78
2022-11-07T16:15:22.544Z,11.74
2022-11-07T16:17:49.510Z,11.70
2022-11-07T16:20:22.965Z,11.71
2022-11-07T16:22:50.357Z,11.71
2022-11-07T16:25:23.615Z,11.68
2022-11-07T16:27:54.702Z,11.73
2022-11-07T16:30:22.457Z,11.74
2022-11-07T16:32:49.301Z,11.73
2022-11-07T16:35:16.175Z,11.74
2022-11-07T16:37:42.735Z,11.73
2022-11-07T16:40:14.625Z,11.83
2022-11-07T16:42:41.242Z,11.95
2022-11-07T16:45:08.482Z,12.06
2022-11-07T16:47:38.561Z,12.12
2022-11-07T16:50:06.121Z,12.17
2022-11-07T16:52:32.707Z,12.21
2022-11-07T16:54:59.509Z,12.25
2022-11-07T16:57:26.436Z,12.28
2022-11-07T16:59:53.067Z,12.34
2022-11-07T17:02:24.666Z,12.38
2022-11-07T17:04:53.163Z,12.38
2022-11-07T17:07:23.079Z,12.45
2022-11-07T17:09:50.404Z,12.51
2022-11-07T17:12:20.353Z,12.54
2022-11-07T17:14:47.533Z,12.58
2022-11-07T17:17:16.195Z,12.60
2022-11-07T17:19:43.423Z,12.59
2022-11-07T17:22:14.235Z,12.62
2022-11-07T17:24:43.062Z,12.62
2022-11-07T17:27:19.833Z,12.63
2022-11-07T17:29:46.334Z,12.66
2022-11-07T17:32:12.890Z,12.68
2022-11-07T17:34:39.435Z,12.68
2022-11-07T17:37:06.027Z,12.71
2022-11-07T17:39:32.531Z,12.73
2022-11-07T17:41:59.235Z,12.73
2022-11-07T17:44:25.725Z,12.72
2022-11-07T17:46:52.341Z,12.69
2022-11-07T17:49:21.974Z,12.71
2022-11-07T17:51:54.216Z,12.70
2022-11-07T17:54:24.133Z,12.71
2022-11-07T17:56:54.778Z,12.66
2022-11-07T17:59:22.731Z,12.67
2022-11-07T18:01:49.636Z,12.65
2022-11-07T18:04:16.442Z,12.62
2022-11-07T18:06:43.680Z,12.62
2022-11-07T18:09:16.412Z,12.62
2022-11-07T18:11:43.647Z,12.62
2022-11-07T18:14:12.015Z,12.60
2022-11-07T18:16:38.708Z,12.59
2022-11-07T18:19:06.106Z,12.56
2022-11-07T18:21:32.789Z,12.55
2022-11-07T18:23:59.338Z,12.50
2022-11-07T18:26:33.220Z,12.45
2022-11-07T18:29:08.862Z,12.45
2022-11-07T18:31:36.918Z,12.41
2022-11-07T18:34:06.413Z,12.42
2022-11-07T18:36:38.557Z,12.40
2022-11-07T18:39:08.445Z,12.41
2022-11-07T18:41:35.326Z,12.40
2022-11-07T18:44:04.956Z,12.37
2022-11-07T18:46:31.941Z,12.36
2022-11-07T18:49:01.392Z,12.34
2022-11-07T18:51:27.961Z,12.31
2022-11-07T18:53:55.088Z,12.30
2022-11-07T18:56:21.923Z,12.32
2022-11-07T18:58:48.613Z,12.34
2022-11-07T19:01:22.340Z,12.36
2022-11-07T19:03:49.019Z,12.36
2022-11-07T19:06:18.506Z,12.37
2022-11-07T19:08:49.628Z,12.36
2022-11-07T19:11:21.753Z,12.38
2022-11-07T19:13:48.364Z,12.34
2022-11-07T19:16:17.238Z,12.34
2022-11-07T19:18:49.093Z,12.31
2022-11-07T19:21:19.903Z,12.30
2022-11-07T19:23:47.068Z,12.34
2022-11-07T19:26:13.911Z,12.34
2022-11-07T19:28:40.944Z,12.33
2022-11-07T19:31:13.379Z,12.33
2022-11-07T19:33:41.689Z,12.32
2022-11-07T19:36:13.725Z,12.30
2022-11-07T19:38:40.718Z,12.29
2022-11-07T19:41:08.567Z,12.29
2022-11-07T19:43:35.717Z,12.29
2022-11-07T19:46:06.987Z,12.28
2022-11-07T19:48:33.516Z,12.25
2022-11-07T19:51:00.036Z,12.23
2022-11-07T19:53:26.541Z,12.23
2022-11-07T19:55:53.405Z,12.23
2022-11-07T19:58:19.897Z,12.22
2022-11-07T20:00:46.511Z,12.19
2022-11-07T20:03:13.288Z,12.16
2022-11-07T20:05:40.657Z,12.15
2022-11-07T20:08:07.211Z,12.14
2022-11-07T20:10:34.223Z,12.12
2022-11-07T20:13:00.816Z,12.10
2022-11-07T20:15:27.420Z,12.07
2022-11-07T20:17:53.924Z,12.05
2022-11-07T20:20:20.533Z,12.05
2022-11-07T20:22:50.617Z,12.03
2022-11-07T20:25:17.250Z,12.01
2022-11-07T20:27:43.870Z,12.01
2022-11-07T20:30:11.154Z,12.01
2022-11-07T20:32:39.302Z,11.98
2022-11-07T20:35:07.003Z,11.97
2022-11-07T20:37:33.725Z,11.94
2022-11-07T20:40:00.263Z,11.94
2022-11-07T20:42:26.852Z,11.93
2022-11-07T20:44:53.397Z,11.93
2022-11-07T20:47:19.994Z,11.93
2022-11-07T20:49:46.828Z,11.90
2022-11-07T20:52:13.585Z,11.88
2022-11-07T20:54:40.212Z,11.91
2022-11-07T20:57:06.835Z,11.90
2022-11-07T20:59:33.744Z,11.90
2022-11-07T21:02:03.523Z,11.90
2022-11-07T21:04:44.430Z,11.87
2022-11-07T21:07:19.708Z,11.87
2022-11-07T21:09:46.738Z,11.87
2022-11-07T21:12:13.446Z,11.85
2022-11-07T21:14:42.276Z,11.88
2022-11-07T21:17:09.973Z,11.86
2022-11-07T21:19:36.604Z,11.84
2022-11-07T21:22:04.147Z,11.82
2022-11-07T21:24:31.120Z,11.83
2022-11-07T21:26:58.019Z,11.83
2022-11-07T21:29:29.292Z,11.84
2022-11-07T21:31:56.580Z,11.81
2022-11-07T21:34:23.106Z,11.80
2022-11-07T21:36:49.676Z,11.79
2022-11-07T21:39:17.447Z,11.79
2022-11-07T21:41:44.022Z,11.78
2022-11-07T21:44:12.465Z,11.80
2022-11-07T21:46:39.455Z,11.78
2022-11-07T21:49:06.359Z,11.78
2022-11-07T21:51:34.802Z,11.77
2022-11-07T21:54:02.988Z,11.75
2022-11-07T21:56:35.351Z,11.75
2022-11-07T21:59:05.308Z,11.75
2022-11-07T22:01:35.621Z,11.73
2022-11-07T22:04:09.061Z,11.75
2022-11-07T22:06:39.932Z,11.73
2022-11-07T22:09:08.390Z,11.74
2022-11-07T22:11:35.073Z,11.74
2022-11-07T22:14:02.048Z,11.74
2022-11-07T22:16:28.783Z,11.73
2022-11-07T22:18:55.365Z,11.74
2022-11-07T22:21:23.171Z,11.71
2022-11-07T22:23:50.605Z,11.72
2022-11-07T22:26:22.978Z,11.70
2022-11-07T22:28:50.161Z,11.71
2022-11-07T22:31:25.437Z,11.68
2022-11-07T22:33:53.534Z,11.69
2022-11-07T22:36:20.933Z,11.67
2022-11-07T22:38:47.673Z,11.65
2022-11-07T22:41:16.869Z,11.65
2022-11-07T22:43:43.842Z,11.65
2022-11-07T22:46:16.672Z,11.65
2022-11-07T22:48:43.756Z,11.65
2022-11-07T22:51:15.849Z,11.63
2022-11-07T22:53:42.566Z,11.66
2022-11-07T22:56:19.568Z,11.67
2022-11-07T22:58:47.612Z,11.66
2022-11-07T23:01:29.914Z,11.68
2022-11-07T23:03:57.298Z,11.67
2022-11-07T23:06:25.586Z,11.67
2022-11-07T23:08:53.209Z,11.70
2022-11-07T23:14:12.560Z,11.75
2022-11-07T23:16:43.577Z,11.73
2022-11-07T23:19:13.171Z,11.75
2022-11-07T23:21:40.576Z,11.74
2022-11-07T23:24:07.864Z,11.75
2022-11-07T23:26:35.092Z,11.80
2022-11-07T23:29:11.180Z,11.79
2022-11-07T23:31:43.226Z,11.80
2022-11-07T23:34:10.097Z,11.80
2022-11-07T23:36:37.090Z,11.82
2022-11-07T23:39:06.199Z,11.84
2022-11-07T23:41:33.436Z,11.83
2022-11-07T23:44:00.134Z,11.85
2022-11-07T23:46:45.232Z,11.86
2022-11-07T23:49:30.421Z,11.87
2022-11-07T23:51:57.010Z,11.87
2022-11-07T23:54:41.968Z,11.88
2022-11-07T23:57:08.523Z,11.93
2022-11-07T23:59:54.666Z,11.93
